createdAt,value
2018-12-09T00:02:01.004Z,2.28
2018-12-09T00:04:30.147Z,2.36
2018-12-09T00:06:59.241Z,2.41
2018-12-09T00:09:28.356Z,2.46
2018-12-09T00:11:57.489Z,2.39
2018-12-09T00:14:26.592Z,2.48
2018-12-09T00:16:55.680Z,2.53
2018-12-09T00:19:24.788Z,2.56
2018-12-09T00:21:53.885Z,2.60
2018-12-09T00:24:23.004Z,2.66
2018-12-09T00:26:52.101Z,2.67
2018-12-09T00:29:21.216Z,2.66
2018-12-09T00:31:50.306Z,2.71
2018-12-09T00:34:19.408Z,2.75
2018-12-09T00:36:48.537Z,2.80
2018-12-09T00:39:17.639Z,2.80
2018-12-09T00:41:46.734Z,2.76
2018-12-09T00:44:15.845Z,2.81
2018-12-09T00:46:44.977Z,2.83
2018-12-09T00:49:14.103Z,2.86
2018-12-09T00:51:43.226Z,2.87
2018-12-09T00:54:12.357Z,2.92
2018-12-09T00:56:41.466Z,2.94
2018-12-09T00:59:10.577Z,2.95
2018-12-09T01:01:39.681Z,3.02
2018-12-09T01:04:08.770Z,3.05
2018-12-09T01:06:37.879Z,3.09
2018-12-09T01:09:07.341Z,3.13
2018-12-09T01:11:36.454Z,3.14
2018-12-09T01:14:05.584Z,3.15
2018-12-09T01:16:34.693Z,3.15
2018-12-09T01:19:03.817Z,3.17
2018-12-09T01:21:32.916Z,3.19
2018-12-09T01:24:02.010Z,3.22
2018-12-09T01:26:31.561Z,3.24
2018-12-09T01:29:00.670Z,3.21
2018-12-09T01:31:29.769Z,3.26
2018-12-09T01:33:58.888Z,3.30
2018-12-09T01:36:28.499Z,3.33
2018-12-09T01:38:57.584Z,3.33
2018-12-09T01:41:26.700Z,3.38
2018-12-09T01:43:55.845Z,3.37
2018-12-09T01:46:24.966Z,3.34
2018-12-09T01:48:54.149Z,3.32
2018-12-09T01:51:23.310Z,3.33
2018-12-09T01:54:23.148Z,3.31
2018-12-09T01:56:52.277Z,3.11
2018-12-09T01:59:21.417Z,3.18
2018-12-09T02:01:50.546Z,3.16
2018-12-09T02:04:20.220Z,3.22
2018-12-09T02:06:49.339Z,3.22
2018-12-09T02:09:18.433Z,3.15
2018-12-09T02:11:47.542Z,3.11
2018-12-09T02:14:16.661Z,3.10
2018-12-09T02:16:45.813Z,3.18
2018-12-09T02:19:23.102Z,3.22
2018-12-09T02:21:52.510Z,3.26
2018-12-09T02:24:22.203Z,3.29
2018-12-09T02:26:51.349Z,3.24
2018-12-09T02:29:20.466Z,3.17
2018-12-09T02:31:49.569Z,3.13
2018-12-09T02:34:18.676Z,3.06
2018-12-09T02:36:47.757Z,3.07
2018-12-09T02:39:16.865Z,3.03
2018-12-09T02:41:45.977Z,2.90
2018-12-09T02:44:15.085Z,2.93
2018-12-09T02:46:44.208Z,2.96
2018-12-09T02:49:13.340Z,2.98
2018-12-09T02:51:42.470Z,3.05
2018-12-09T02:54:11.586Z,3.08
2018-12-09T02:56:40.922Z,3.11
2018-12-09T02:59:10.248Z,3.12
2018-12-09T03:01:39.393Z,3.15
2018-12-09T03:04:08.554Z,3.16
2018-12-09T03:06:38.204Z,3.18
2018-12-09T03:09:09.744Z,3.17
2018-12-09T03:12:41.942Z,3.15
2018-12-09T03:15:11.062Z,3.13
2018-12-09T03:17:40.203Z,3.08
2018-12-09T03:20:09.305Z,3.02
2018-12-09T03:22:38.506Z,3.04
2018-12-09T03:25:07.675Z,3.06
2018-12-09T03:27:36.784Z,3.08
2018-12-09T03:30:06.309Z,3.08
2018-12-09T03:32:35.441Z,3.09
2018-12-09T03:35:04.777Z,3.12
2018-12-09T03:37:33.873Z,3.12
2018-12-09T03:40:02.975Z,3.12
2018-12-09T03:42:32.096Z,3.09
2018-12-09T03:45:01.188Z,3.09
2018-12-09T03:47:30.313Z,3.10
2018-12-09T03:49:59.461Z,3.11
2018-12-09T03:52:28.882Z,3.10
2018-12-09T03:54:57.989Z,3.05
2018-12-09T03:57:27.097Z,3.00
2018-12-09T03:59:56.185Z,2.98
2018-12-09T04:02:25.305Z,2.86
2018-12-09T04:04:54.417Z,2.90
2018-12-09T04:07:23.543Z,2.93
2018-12-09T04:09:52.638Z,2.93
2018-12-09T04:12:21.860Z,2.92
2018-12-09T04:14:51.173Z,2.93
2018-12-09T04:17:20.309Z,3.02
2018-12-09T04:19:49.451Z,3.01
2018-12-09T04:22:18.573Z,3.05
2018-12-09T04:24:47.685Z,2.98
2018-12-09T04:27:16.809Z,2.95
2018-12-09T04:29:45.905Z,2.83
2018-12-09T04:32:15.026Z,2.75
2018-12-09T04:34:44.111Z,2.68
2018-12-09T04:37:13.349Z,2.60
2018-12-09T04:39:42.465Z,2.67
2018-12-09T04:42:11.583Z,2.73
2018-12-09T04:44:40.694Z,2.77
2018-12-09T04:47:09.828Z,2.82
2018-12-09T04:49:38.924Z,2.85
2018-12-09T04:52:08.068Z,2.77
2018-12-09T04:54:37.164Z,2.77
2018-12-09T04:57:06.251Z,2.87
2018-12-09T04:59:35.417Z,2.88
2018-12-09T05:02:04.538Z,2.94
2018-12-09T05:04:33.657Z,3.06
2018-12-09T05:07:02.772Z,3.11
2018-12-09T05:09:31.893Z,3.16
2018-12-09T05:12:01.025Z,3.20
2018-12-09T05:14:30.117Z,3.24
2018-12-09T05:16:59.285Z,3.29
2018-12-09T05:19:28.413Z,3.36
2018-12-09T05:21:57.542Z,3.41
2018-12-09T05:24:26.650Z,3.44
2018-12-09T05:26:55.773Z,3.52
2018-12-09T05:29:24.904Z,3.59
2018-12-09T05:31:54.073Z,3.66
2018-12-09T05:34:23.193Z,3.73
2018-12-09T05:36:52.305Z,3.81
2018-12-09T05:39:21.451Z,3.86
2018-12-09T05:41:50.570Z,3.90
2018-12-09T05:44:20.092Z,3.94
2018-12-09T05:46:49.233Z,3.97
2018-12-09T05:49:18.355Z,3.95
2018-12-09T05:51:47.456Z,3.97
2018-12-09T05:54:16.541Z,3.97
2018-12-09T05:56:45.669Z,3.94
2018-12-09T05:59:14.808Z,3.92
2018-12-09T06:01:43.926Z,4.01
2018-12-09T06:04:13.050Z,4.06
2018-12-09T06:06:42.706Z,4.14
2018-12-09T06:09:11.826Z,4.11
2018-12-09T06:11:40.932Z,4.14
2018-12-09T06:14:10.053Z,4.21
2018-12-09T06:16:39.190Z,4.27
2018-12-09T06:19:08.285Z,4.32
2018-12-09T06:21:37.427Z,4.44
2018-12-09T06:24:06.547Z,4.57
2018-12-09T06:26:35.726Z,4.67
2018-12-09T06:29:04.872Z,4.76
2018-12-09T06:31:34.001Z,4.85
2018-12-09T06:34:03.119Z,4.90
2018-12-09T06:36:32.229Z,4.94
2018-12-09T06:39:01.354Z,4.96
2018-12-09T06:41:30.689Z,4.90
2018-12-09T06:43:59.800Z,4.84
2018-12-09T06:46:28.952Z,4.82
2018-12-09T06:48:58.163Z,4.78
2018-12-09T06:51:27.281Z,4.74
2018-12-09T06:53:56.397Z,4.73
2018-12-09T06:56:25.558Z,4.72
2018-12-09T06:58:54.729Z,4.69
2018-12-09T07:01:23.912Z,4.77
2018-12-09T07:03:53.057Z,4.86
2018-12-09T07:06:22.257Z,4.93
2018-12-09T07:08:51.397Z,4.96
2018-12-09T07:11:20.533Z,4.97
2018-12-09T07:13:49.662Z,4.95
2018-12-09T07:16:18.791Z,4.98
2018-12-09T07:18:47.900Z,5.01
2018-12-09T07:21:17.032Z,4.99
2018-12-09T07:23:46.157Z,5.06
2018-12-09T07:26:15.271Z,5.11
2018-12-09T07:28:44.734Z,5.15
2018-12-09T07:31:13.868Z,5.17
2018-12-09T07:33:43.031Z,5.27
2018-12-09T07:36:12.142Z,5.31
2018-12-09T07:38:41.275Z,5.37
2018-12-09T07:41:10.393Z,5.37
2018-12-09T07:43:39.518Z,5.40
2018-12-09T07:46:08.629Z,5.52
2018-12-09T07:48:37.754Z,5.58
2018-12-09T07:51:06.967Z,5.63
2018-12-09T07:53:36.100Z,5.67
2018-12-09T07:56:05.240Z,5.71
2018-12-09T07:58:34.390Z,5.58
2018-12-09T08:01:03.504Z,5.50
2018-12-09T08:03:32.613Z,5.52
2018-12-09T08:06:01.741Z,5.57
2018-12-09T08:08:30.856Z,5.61
2018-12-09T08:10:59.936Z,5.74
2018-12-09T08:13:29.032Z,5.89
2018-12-09T08:15:58.141Z,5.98
2018-12-09T08:18:27.271Z,6.13
2018-12-09T08:20:56.399Z,6.28
2018-12-09T08:23:25.512Z,6.48
2018-12-09T08:25:54.634Z,6.65
2018-12-09T08:28:23.762Z,6.81
2018-12-09T08:30:52.903Z,6.93
2018-12-09T08:33:22.016Z,7.04
2018-12-09T08:35:51.125Z,7.13
2018-12-09T08:38:20.260Z,7.19
2018-12-09T08:40:49.384Z,7.32
2018-12-09T08:43:18.485Z,7.40
2018-12-09T08:45:47.598Z,7.56
2018-12-09T08:48:16.709Z,7.69
2018-12-09T08:50:45.840Z,7.78
2018-12-09T08:53:14.965Z,7.76
2018-12-09T08:55:44.205Z,7.91
2018-12-09T08:58:13.328Z,8.06
2018-12-09T09:00:42.474Z,8.19
2018-12-09T09:03:11.584Z,8.38
2018-12-09T09:05:40.694Z,8.61
2018-12-09T09:08:09.784Z,8.84
2018-12-09T09:10:38.878Z,9.09
2018-12-09T09:13:08.008Z,9.28
2018-12-09T09:15:37.113Z,9.45
2018-12-09T09:18:06.180Z,9.54
2018-12-09T09:20:35.284Z,9.68
2018-12-09T09:23:04.411Z,9.83
2018-12-09T09:25:33.551Z,10.01
2018-12-09T09:28:02.673Z,10.17
2018-12-09T09:30:31.812Z,10.34
2018-12-09T09:33:00.961Z,10.43
2018-12-09T09:35:30.059Z,10.54
2018-12-09T09:37:59.161Z,10.63
2018-12-09T09:40:28.274Z,10.66
2018-12-09T09:42:57.425Z,10.64
2018-12-09T09:45:26.642Z,10.65
2018-12-09T09:47:55.752Z,10.71
2018-12-09T09:50:24.859Z,10.83
2018-12-09T09:52:53.985Z,10.86
2018-12-09T09:55:23.094Z,10.90
2018-12-09T09:57:52.238Z,10.90
2018-12-09T10:00:21.343Z,10.84
2018-12-09T10:02:50.443Z,10.79
2018-12-09T10:05:19.544Z,10.74
2018-12-09T10:07:48.638Z,10.63
2018-12-09T10:10:17.853Z,10.61
2018-12-09T10:12:46.977Z,10.46
2018-12-09T10:15:16.166Z,10.40
2018-12-09T10:17:45.284Z,10.35
2018-12-09T10:20:14.478Z,10.40
2018-12-09T10:22:43.569Z,10.59
2018-12-09T10:25:12.723Z,10.70
2018-12-09T10:27:41.836Z,10.70
2018-12-09T10:30:11.037Z,10.62
2018-12-09T10:32:40.160Z,10.64
2018-12-09T10:35:09.265Z,10.56
2018-12-09T10:37:38.377Z,10.55
2018-12-09T10:40:07.668Z,10.58
2018-12-09T10:42:36.762Z,10.78
2018-12-09T10:45:06.420Z,10.79
2018-12-09T10:47:35.585Z,10.84
2018-12-09T10:50:05.325Z,10.93
2018-12-09T10:52:34.422Z,10.91
2018-12-09T10:55:03.530Z,10.91
2018-12-09T10:57:32.617Z,10.93
2018-12-09T11:00:01.710Z,10.93
2018-12-09T11:02:30.811Z,10.86
2018-12-09T11:04:59.986Z,10.62
2018-12-09T11:07:29.128Z,10.46
2018-12-09T11:09:58.298Z,10.34
2018-12-09T11:12:27.415Z,10.27
2018-12-09T11:14:56.537Z,10.23
2018-12-09T11:17:26.545Z,10.14
2018-12-09T11:19:55.718Z,9.94
2018-12-09T11:22:24.784Z,9.80
2018-12-09T11:24:53.881Z,9.58
2018-12-09T11:27:22.977Z,9.52
2018-12-09T11:29:52.094Z,9.40
2018-12-09T11:32:21.189Z,9.32
2018-12-09T11:34:50.329Z,9.19
2018-12-09T11:37:19.458Z,8.78
2018-12-09T11:39:48.553Z,8.53
2018-12-09T11:42:17.754Z,8.40
2018-12-09T11:44:46.882Z,8.37
2018-12-09T11:47:15.977Z,8.36
2018-12-09T11:49:45.097Z,8.31
2018-12-09T11:52:15.106Z,8.19
2018-12-09T11:54:44.221Z,8.21
2018-12-09T11:57:13.885Z,8.23
2018-12-09T11:59:45.103Z,8.31
2018-12-09T12:02:20.053Z,8.40
2018-12-09T12:04:45.349Z,8.37
2018-12-09T12:07:14.453Z,8.41
2018-12-09T12:09:43.561Z,8.54
2018-12-09T12:12:12.737Z,8.61
2018-12-09T12:14:41.841Z,8.73
2018-12-09T12:17:10.968Z,8.81
2018-12-09T12:19:40.116Z,8.83
2018-12-09T12:22:09.212Z,8.87
2018-12-09T12:24:38.305Z,8.92
2018-12-09T12:27:07.386Z,8.92
2018-12-09T12:29:36.496Z,8.91
2018-12-09T12:32:05.581Z,9.00
2018-12-09T12:35:05.491Z,9.15
2018-12-09T12:37:34.691Z,9.27
2018-12-09T12:40:03.877Z,9.35
2018-12-09T12:42:32.987Z,9.11
2018-12-09T12:45:02.134Z,9.31
2018-12-09T12:47:31.240Z,9.52
2018-12-09T12:50:00.405Z,9.65
2018-12-09T12:52:29.527Z,9.75
2018-12-09T12:54:58.658Z,9.80
2018-12-09T12:57:28.040Z,9.87
2018-12-09T12:59:57.177Z,9.94
2018-12-09T13:02:26.304Z,9.98
2018-12-09T13:04:55.426Z,10.00
2018-12-09T13:07:24.614Z,10.05
2018-12-09T13:09:53.733Z,10.03
2018-12-09T13:12:22.845Z,9.94
2018-12-09T13:14:51.970Z,9.91
2018-12-09T13:17:21.057Z,9.90
2018-12-09T13:19:50.186Z,9.80
2018-12-09T13:22:19.262Z,9.68
2018-12-09T13:24:48.389Z,9.54
2018-12-09T13:27:17.504Z,9.30
2018-12-09T13:29:46.617Z,9.18
2018-12-09T13:32:15.731Z,9.02
2018-12-09T13:34:44.869Z,8.83
2018-12-09T13:37:14.026Z,8.65
2018-12-09T13:39:43.154Z,8.46
2018-12-09T13:42:12.245Z,8.19
2018-12-09T13:44:41.370Z,8.16
2018-12-09T13:47:10.461Z,8.15
2018-12-09T13:49:39.554Z,8.12
2018-12-09T13:52:08.641Z,8.04
2018-12-09T13:54:37.842Z,7.98
2018-12-09T13:57:06.934Z,7.92
2018-12-09T13:59:37.045Z,7.87
2018-12-09T14:02:06.155Z,7.84
2018-12-09T14:04:35.260Z,7.78
2018-12-09T14:07:04.368Z,7.65
2018-12-09T14:09:33.482Z,7.47
2018-12-09T14:12:02.622Z,7.51
2018-12-09T14:14:31.740Z,7.55
2018-12-09T14:17:00.969Z,7.40
2018-12-09T14:19:30.116Z,7.41
2018-12-09T14:21:59.208Z,7.16
2018-12-09T14:24:28.462Z,7.22
2018-12-09T14:26:57.564Z,7.26
2018-12-09T14:29:26.842Z,7.00
2018-12-09T14:31:56.293Z,6.83
2018-12-09T14:34:25.427Z,6.84
2018-12-09T14:36:56.402Z,6.74
2018-12-09T14:39:25.706Z,6.63
2018-12-09T14:41:54.845Z,6.26
2018-12-09T14:44:23.977Z,6.16
2018-12-09T14:46:53.107Z,6.12
2018-12-09T14:49:22.240Z,6.02
2018-12-09T14:51:51.369Z,5.86
2018-12-09T14:54:20.684Z,5.65
2018-12-09T14:56:49.913Z,5.46
2018-12-09T14:59:19.013Z,5.41
2018-12-09T15:01:48.140Z,5.31
2018-12-09T15:04:17.245Z,5.20
2018-12-09T15:06:46.374Z,5.07
2018-12-09T15:09:15.497Z,4.98
2018-12-09T15:11:44.653Z,4.80
2018-12-09T15:14:13.749Z,4.79
2018-12-09T15:16:42.901Z,4.72
2018-12-09T15:19:12.020Z,4.63
2018-12-09T15:21:41.148Z,4.54
2018-12-09T15:24:10.269Z,4.44
2018-12-09T15:26:39.387Z,4.31
2018-12-09T15:29:08.524Z,4.21
2018-12-09T15:31:37.659Z,4.14
2018-12-09T15:34:06.798Z,3.94
2018-12-09T15:36:35.955Z,3.97
2018-12-09T15:39:06.485Z,3.86
2018-12-09T15:41:35.602Z,3.74
2018-12-09T15:44:04.728Z,3.68
2018-12-09T15:46:33.846Z,3.63
2018-12-09T15:49:02.957Z,3.58
2018-12-09T15:51:32.076Z,3.49
2018-12-09T15:54:01.445Z,3.43
2018-12-09T15:56:30.577Z,3.42
2018-12-09T15:58:59.668Z,3.36
2018-12-09T16:01:28.781Z,3.30
2018-12-09T16:03:57.889Z,3.24
2018-12-09T16:06:27.078Z,3.18
2018-12-09T16:08:56.150Z,3.11
2018-12-09T16:11:25.275Z,3.05
2018-12-09T16:13:54.386Z,2.98
2018-12-09T16:16:23.488Z,2.94
2018-12-09T16:18:52.583Z,2.90
2018-12-09T16:21:21.685Z,2.87
2018-12-09T16:23:50.823Z,2.83
2018-12-09T16:26:19.962Z,2.78
2018-12-09T16:28:49.090Z,2.73
2018-12-09T16:31:18.203Z,2.71
2018-12-09T16:33:47.308Z,2.68
2018-12-09T16:36:16.463Z,2.61
2018-12-09T16:38:45.594Z,2.56
2018-12-09T16:41:14.845Z,2.48
2018-12-09T16:43:43.973Z,2.44
2018-12-09T16:46:13.146Z,2.46
2018-12-09T16:48:43.317Z,2.46
2018-12-09T16:51:12.594Z,2.43
2018-12-09T16:53:41.734Z,2.42
2018-12-09T16:56:10.877Z,2.43
2018-12-09T16:58:40.012Z,2.40
2018-12-09T17:01:09.132Z,2.37
2018-12-09T17:03:38.266Z,2.37
2018-12-09T17:06:07.382Z,2.35
2018-12-09T17:08:36.586Z,2.34
2018-12-09T17:11:05.686Z,2.31
2018-12-09T17:13:34.813Z,2.28
2018-12-09T17:16:03.916Z,2.24
2018-12-09T17:18:33.045Z,2.21
2018-12-09T17:21:02.140Z,2.18
2018-12-09T17:23:31.356Z,2.17
2018-12-09T17:26:00.569Z,2.14
2018-12-09T17:28:29.691Z,2.17
2018-12-09T17:30:58.809Z,2.14
2018-12-09T17:33:27.925Z,2.10
2018-12-09T17:35:57.034Z,2.04
2018-12-09T17:38:26.212Z,2.00
2018-12-09T17:40:55.330Z,2.00
2018-12-09T17:43:24.423Z,1.96
2018-12-09T17:45:53.545Z,2.00
2018-12-09T17:48:22.668Z,1.99
2018-12-09T17:50:51.913Z,1.94
2018-12-09T17:53:21.158Z,1.90
2018-12-09T17:55:50.250Z,1.86
2018-12-09T17:58:19.350Z,1.81
2018-12-09T18:00:48.465Z,1.81
2018-12-09T18:03:17.589Z,1.74
2018-12-09T18:05:46.721Z,1.69
2018-12-09T18:08:15.832Z,1.66
2018-12-09T18:10:44.952Z,1.65
2018-12-09T18:13:14.138Z,1.63
2018-12-09T18:15:43.429Z,1.60
2018-12-09T18:18:12.638Z,1.55
2018-12-09T18:20:41.733Z,1.59
2018-12-09T18:23:10.853Z,1.57
2018-12-09T18:25:40.007Z,1.59
2018-12-09T18:28:09.153Z,1.66
2018-12-09T18:30:38.281Z,1.65
2018-12-09T18:33:07.846Z,1.66
2018-12-09T18:35:37.013Z,1.69
2018-12-09T18:38:06.337Z,1.71
2018-12-09T18:40:36.175Z,1.74
2018-12-09T18:43:05.482Z,1.76
2018-12-09T18:45:36.412Z,1.76
2018-12-09T18:48:06.769Z,1.68
2018-12-09T18:50:38.924Z,1.64
2018-12-09T18:53:08.034Z,1.57
2018-12-09T18:55:37.232Z,1.62
2018-12-09T18:58:06.346Z,1.64
2018-12-09T19:00:35.533Z,1.70
2018-12-09T19:03:04.694Z,1.68
2018-12-09T19:05:33.884Z,1.68
2018-12-09T19:08:03.357Z,1.65
2018-12-09T19:10:34.167Z,1.58
2018-12-09T19:13:03.389Z,1.53
2018-12-09T19:15:32.732Z,1.54
2018-12-09T19:18:01.909Z,1.59
2018-12-09T19:20:31.188Z,1.63
2018-12-09T19:23:00.378Z,1.59
2018-12-09T19:25:29.494Z,1.56
2018-12-09T19:27:58.614Z,1.57
2018-12-09T19:30:27.756Z,1.55
2018-12-09T19:32:57.901Z,1.56
2018-12-09T19:35:27.039Z,1.59
2018-12-09T19:37:56.155Z,1.50
2018-12-09T19:40:25.389Z,1.60
2018-12-09T19:42:54.516Z,1.73
2018-12-09T19:45:23.669Z,1.92
2018-12-09T19:47:52.812Z,1.93
2018-12-09T19:50:21.931Z,1.96
2018-12-09T19:52:51.158Z,1.96
2018-12-09T19:55:51.358Z,2.02
2018-12-09T19:58:20.485Z,1.91
2018-12-09T20:00:49.575Z,1.89
2018-12-09T20:03:18.698Z,1.84
2018-12-09T20:05:47.814Z,1.91
2018-12-09T20:08:16.961Z,1.94
2018-12-09T20:10:46.077Z,1.90
2018-12-09T20:13:15.219Z,1.84
2018-12-09T20:15:44.345Z,1.73
2018-12-09T20:18:13.500Z,1.60
2018-12-09T20:20:42.603Z,1.51
2018-12-09T20:23:11.733Z,1.45
2018-12-09T20:25:40.921Z,1.38
2018-12-09T20:28:10.061Z,1.25
2018-12-09T20:30:39.232Z,1.18
2018-12-09T20:33:08.344Z,1.07
2018-12-09T20:35:37.522Z,0.96
2018-12-09T20:38:06.658Z,0.83
2018-12-09T20:40:35.774Z,0.78
2018-12-09T20:43:04.916Z,0.69
2018-12-09T20:45:34.039Z,0.66
2018-12-09T20:48:13.233Z,0.69
2018-12-09T20:50:36.185Z,0.65
2018-12-09T20:53:05.343Z,0.69
2018-12-09T20:55:34.458Z,0.67
2018-12-09T20:58:03.599Z,0.65
2018-12-09T21:00:32.873Z,0.62
2018-12-09T21:03:02.050Z,0.66
2018-12-09T21:05:31.152Z,0.58
2018-12-09T21:08:00.258Z,0.60
2018-12-09T21:10:29.500Z,0.59
2018-12-09T21:13:00.240Z,0.58
2018-12-09T21:15:29.634Z,0.58
2018-12-09T21:17:58.775Z,0.53
2018-12-09T21:20:27.865Z,0.53
2018-12-09T21:22:56.976Z,0.50
2018-12-09T21:25:26.085Z,0.46
2018-12-09T21:27:55.198Z,0.46
2018-12-09T21:30:24.339Z,0.44
2018-12-09T21:32:53.468Z,0.43
2018-12-09T21:35:22.629Z,0.39
2018-12-09T21:37:51.758Z,0.34
2018-12-09T21:40:20.870Z,0.24
2018-12-09T21:42:49.981Z,0.28
2018-12-09T21:45:19.078Z,0.32
2018-12-09T21:47:48.213Z,0.33
2018-12-09T21:50:17.325Z,0.31
2018-12-09T21:52:46.454Z,0.26
2018-12-09T21:55:15.697Z,0.14
2018-12-09T21:57:44.817Z,0.12
2018-12-09T22:00:13.958Z,0.23
2018-12-09T22:02:43.062Z,0.27
2018-12-09T22:05:12.186Z,0.28
2018-12-09T22:07:41.318Z,0.22
2018-12-09T22:10:10.438Z,0.27
2018-12-09T22:12:39.629Z,0.31
2018-12-09T22:15:08.800Z,0.25
2018-12-09T22:17:37.982Z,0.25
2018-12-09T22:20:07.258Z,0.20
2018-12-09T22:22:36.443Z,0.18
2018-12-09T22:25:06.068Z,0.08
2018-12-09T22:27:35.344Z,0.06
2018-12-09T22:30:04.581Z,0.17
2018-12-09T22:32:33.733Z,0.20
2018-12-09T22:35:02.873Z,0.23
2018-12-09T22:37:32.082Z,0.22
2018-12-09T22:40:01.270Z,0.30
2018-12-09T22:42:30.437Z,0.28
2018-12-09T22:44:59.597Z,0.25
2018-12-09T22:47:28.723Z,0.32
2018-12-09T22:49:57.874Z,0.34
2018-12-09T22:52:27.009Z,0.31
2018-12-09T22:54:56.174Z,0.27
2018-12-09T22:57:25.302Z,0.26
2018-12-09T22:59:54.468Z,0.22
2018-12-09T23:02:28.541Z,0.23
2018-12-09T23:04:57.733Z,0.27
2018-12-09T23:07:31.981Z,0.24
2018-12-09T23:10:01.177Z,0.21
2018-12-09T23:12:30.327Z,0.18
2018-12-09T23:14:59.452Z,0.13
2018-12-09T23:17:28.581Z,0.09
2018-12-09T23:19:57.713Z,0.09
2018-12-09T23:22:26.860Z,0.07
2018-12-09T23:24:55.979Z,0.06
2018-12-09T23:27:25.089Z,-0.07
2018-12-09T23:29:54.234Z,-0.01
2018-12-09T23:32:23.365Z,0.01
2018-12-09T23:34:52.490Z,-0.04
2018-12-09T23:37:21.601Z,-0.08
2018-12-09T23:39:50.724Z,-0.04
2018-12-09T23:42:19.884Z,-0.07
2018-12-09T23:44:49.046Z,-0.06
2018-12-09T23:47:18.162Z,0.04
2018-12-09T23:49:47.288Z,0.25
2018-12-09T23:52:16.401Z,0.34
2018-12-09T23:54:45.500Z,0.23
2018-12-09T23:57:14.614Z,0.09
2018-12-09T23:59:43.737Z,0.01
